This is the latest recevied weather packets stored in our database for station/object OK3MS-5. If no packets are shown the sender has not sent any weather packets the latest 10 day(s).
| Time | Temp. | Humidity | Pressure | Rain* | Wind** | Luminosity | Snow |
|---|---|---|---|---|---|---|---|
| 1777464903 | 13.33° C | 30% | 1022.3 hPa | 0 mm | - | 699 W/m² | - |
| 1777464604 | 12.22° C | 33% | 1022.4 hPa | 0 mm | - | 702 W/m² | - |
| 1777464303 | 12.22° C | 32% | 1022.6 hPa | 0 mm | - | 700 W/m² | - |
| 1777464010 | 12.78° C | 35% | 1022.6 hPa | 0 mm | - | 706 W/m² | - |
| 1777463704 | 12.22° C | 33% | 1022.7 hPa | 0 mm | - | 711 W/m² | - |
| 1777463105 | 12.78° C | 33% | 1022.6 hPa | 0 mm | - | 716 W/m² | - |
| 1777462805 | 11.67° C | 30% | 1022.7 hPa | 0 mm | - | 714 W/m² | - |
| 1777462506 | 12.22° C | 31% | 1022.7 hPa | 0 mm | - | 714 W/m² | - |
| 1777462206 | 13.33° C | 29% | 1022.6 hPa | 0 mm | - | 718 W/m² | - |
| 1777461904 | 12.78° C | 32% | 1022.6 hPa | 0 mm | - | 719 W/m² | - |
| 1777461603 | 12.22° C | 33% | 1022.7 hPa | 0 mm | - | 716 W/m² | - |
| 1777461306 | 11.67° C | 33% | 1022.9 hPa | 0 mm | - | 718 W/m² | - |
| 1777461003 | 11.67° C | 32% | 1023 hPa | 0 mm | - | 724 W/m² | - |
| 1777460703 | 11.67° C | 34% | 1023 hPa | 0 mm | - | 727 W/m² | - |
| 1777460405 | 12.22° C | 35% | 1023 hPa | 0 mm | - | 728 W/m² | - |
| 1777460105 | 11.67° C | 34% | 1023.2 hPa | 0 mm | - | 730 W/m² | - |
| 1777459803 | 11.67° C | 34% | 1023.2 hPa | 0 mm | - | 729 W/m² | - |
| 1777459504 | 11.67° C | 33% | 1023.2 hPa | 0 mm | - | 732 W/m² | - |
| 1777459206 | 11.67° C | 32% | 1023.2 hPa | 0 mm | - | 724 W/m² | - |
| 1777458904 | 11.11° C | 35% | 1023.3 hPa | 0 mm | - | 723 W/m² | - |
| 1777458603 | 11.67° C | 32% | 1023.3 hPa | 0 mm | - | 722 W/m² | - |
| 1777458303 | 11.67° C | 33% | 1023.3 hPa | 0 mm | - | 716 W/m² | - |
| 1777458005 | 11.67° C | 33% | 1023.4 hPa | 0 mm | - | 714 W/m² | - |
| 1777457704 | 11.67° C | 33% | 1023.4 hPa | 0 mm | - | 710 W/m² | - |
| 1777457404 | 11.11° C | 34% | 1023.5 hPa | 0 mm | - | 708 W/m² | - |
* Rain latest hour (hover to see other rain measurements)
** Current wind speed in m/s (hover to see current wind gust speed)